sensor_id;sensor_type;location;lat;lon;timestamp;P1;durP1;ratioP1;P2;durP2;ratioP2
68144;SDS011;55400;51.824;-0.196;2022-10-10T00:02:10;8.27;;;3.33;;
68144;SDS011;55400;51.824;-0.196;2022-10-10T00:04:35;8.27;;;4.05;;
68144;SDS011;55400;51.824;-0.196;2022-10-10T00:07:01;11.60;;;4.03;;
68144;SDS011;55400;51.824;-0.196;2022-10-10T00:09:28;12.13;;;3.88;;
68144;SDS011;55400;51.824;-0.196;2022-10-10T00:11:53;10.80;;;3.55;;
68144;SDS011;55400;51.824;-0.196;2022-10-10T00:14:19;8.52;;;3.88;;
68144;SDS011;55400;51.824;-0.196;2022-10-10T00:16:44;13.85;;;3.80;;
68144;SDS011;55400;51.824;-0.196;2022-10-10T00:19:10;11.70;;;3.70;;
68144;SDS011;55400;51.824;-0.196;2022-10-10T00:21:36;6.57;;;3.35;;
68144;SDS011;55400;51.824;-0.196;2022-10-10T00:24:01;13.00;;;3.67;;
68144;SDS011;55400;51.824;-0.196;2022-10-10T00:26:27;9.20;;;4.18;;
68144;SDS011;55400;51.824;-0.196;2022-10-10T00:28:53;7.55;;;3.80;;
68144;SDS011;55400;51.824;-0.196;2022-10-10T00:31:18;6.95;;;3.25;;
68144;SDS011;55400;51.824;-0.196;2022-10-10T00:33:44;9.63;;;3.80;;
68144;SDS011;55400;51.824;-0.196;2022-10-10T00:36:09;8.57;;;3.75;;
68144;SDS011;55400;51.824;-0.196;2022-10-10T00:38:35;14.10;;;4.13;;
68144;SDS011;55400;51.824;-0.196;2022-10-10T00:41:00;5.25;;;3.10;;
68144;SDS011;55400;51.824;-0.196;2022-10-10T00:43:27;8.32;;;3.35;;
68144;SDS011;55400;51.824;-0.196;2022-10-10T00:45:53;7.43;;;3.35;;
68144;SDS011;55400;51.824;-0.196;2022-10-10T00:48:21;8.07;;;3.95;;
68144;SDS011;55400;51.824;-0.196;2022-10-10T00:50:54;5.90;;;3.80;;
68144;SDS011;55400;51.824;-0.196;2022-10-10T00:53:24;12.57;;;3.70;;
68144;SDS011;55400;51.824;-0.196;2022-10-10T00:55:53;7.63;;;3.60;;
68144;SDS011;55400;51.824;-0.196;2022-10-10T00:58:21;11.98;;;4.50;;
68144;SDS011;55400;51.824;-0.196;2022-10-10T01:00:47;9.13;;;4.13;;
68144;SDS011;55400;51.824;-0.196;2022-10-10T01:03:13;7.38;;;3.53;;
68144;SDS011;55400;51.824;-0.196;2022-10-10T01:05:38;9.07;;;3.63;;
68144;SDS011;55400;51.824;-0.196;2022-10-10T01:08:05;8.32;;;3.90;;
68144;SDS011;55400;51.824;-0.196;2022-10-10T01:10:33;7.63;;;3.90;;
68144;SDS011;55400;51.824;-0.196;2022-10-10T01:13:18;7.15;;;3.50;;
68144;SDS011;55400;51.824;-0.196;2022-10-10T01:15:54;8.37;;;3.77;;
68144;SDS011;55400;51.824;-0.196;2022-10-10T01:18:27;9.88;;;3.42;;
68144;SDS011;55400;51.824;-0.196;2022-10-10T01:21:05;7.50;;;3.55;;
68144;SDS011;55400;51.824;-0.196;2022-10-10T01:24:00;7.15;;;3.67;;
68144;SDS011;55400;51.824;-0.196;2022-10-10T01:27:44;9.30;;;3.80;;
68144;SDS011;55400;51.824;-0.196;2022-10-10T01:29:49;8.25;;;3.63;;
68144;SDS011;55400;51.824;-0.196;2022-10-10T01:43:15;10.52;;;3.20;;
68144;SDS011;55400;51.824;-0.196;2022-10-10T01:45:43;6.45;;;3.10;;
68144;SDS011;55400;51.824;-0.196;2022-10-10T01:48:12;4.03;;;2.83;;
68144;SDS011;55400;51.824;-0.196;2022-10-10T01:53:19;9.93;;;3.65;;
68144;SDS011;55400;51.824;-0.196;2022-10-10T02:01:33;11.73;;;3.95;;
68144;SDS011;55400;51.824;-0.196;2022-10-10T02:04:10;7.25;;;3.33;;
68144;SDS011;55400;51.824;-0.196;2022-10-10T02:09:39;11.52;;;3.17;;
68144;SDS011;55400;51.824;-0.196;2022-10-10T02:12:07;10.07;;;3.53;;
68144;SDS011;55400;51.824;-0.196;2022-10-10T02:14:36;14.32;;;3.45;;
68144;SDS011;55400;51.824;-0.196;2022-10-10T02:17:15;8.70;;;3.13;;
68144;SDS011;55400;51.824;-0.196;2022-10-10T02:19:43;8.00;;;3.20;;
68144;SDS011;55400;51.824;-0.196;2022-10-10T02:22:13;8.60;;;3.20;;
68144;SDS011;55400;51.824;-0.196;2022-10-10T02:24:39;6.10;;;2.72;;
68144;SDS011;55400;51.824;-0.196;2022-10-10T02:27:07;7.38;;;2.72;;
68144;SDS011;55400;51.824;-0.196;2022-10-10T02:29:37;10.32;;;3.30;;
68144;SDS011;55400;51.824;-0.196;2022-10-10T02:32:20;10.93;;;3.47;;
68144;SDS011;55400;51.824;-0.196;2022-10-10T02:34:54;11.65;;;3.38;;
68144;SDS011;55400;51.824;-0.196;2022-10-10T02:37:21;9.57;;;3.22;;
68144;SDS011;55400;51.824;-0.196;2022-10-10T02:39:50;9.05;;;3.35;;
68144;SDS011;55400;51.824;-0.196;2022-10-10T02:42:22;10.10;;;3.30;;
68144;SDS011;55400;51.824;-0.196;2022-10-10T02:44:49;6.43;;;2.95;;
68144;SDS011;55400;51.824;-0.196;2022-10-10T02:47:15;8.30;;;2.78;;
68144;SDS011;55400;51.824;-0.196;2022-10-10T02:49:41;8.35;;;3.40;;
68144;SDS011;55400;51.824;-0.196;2022-10-10T02:52:07;7.63;;;3.17;;
68144;SDS011;55400;51.824;-0.196;2022-10-10T02:54:34;9.02;;;2.97;;
68144;SDS011;55400;51.824;-0.196;2022-10-10T02:56:59;10.35;;;3.03;;
68144;SDS011;55400;51.824;-0.196;2022-10-10T02:59:25;7.63;;;3.58;;
68144;SDS011;55400;51.824;-0.196;2022-10-10T03:01:50;5.60;;;3.05;;
68144;SDS011;55400;51.824;-0.196;2022-10-10T03:04:16;10.00;;;3.20;;
68144;SDS011;55400;51.824;-0.196;2022-10-10T03:06:41;6.68;;;3.00;;
68144;SDS011;55400;51.824;-0.196;2022-10-10T03:09:07;7.47;;;3.45;;
68144;SDS011;55400;51.824;-0.196;2022-10-10T03:11:32;6.85;;;3.38;;
68144;SDS011;55400;51.824;-0.196;2022-10-10T03:13:58;8.10;;;3.10;;
68144;SDS011;55400;51.824;-0.196;2022-10-10T03:16:23;7.88;;;3.70;;
68144;SDS011;55400;51.824;-0.196;2022-10-10T03:18:49;13.18;;;3.75;;
68144;SDS011;55400;51.824;-0.196;2022-10-10T03:21:14;10.68;;;3.58;;
68144;SDS011;55400;51.824;-0.196;2022-10-10T03:23:40;10.05;;;3.30;;
68144;SDS011;55400;51.824;-0.196;2022-10-10T03:26:05;5.95;;;3.05;;
68144;SDS011;55400;51.824;-0.196;2022-10-10T03:28:31;18.05;;;3.38;;
68144;SDS011;55400;51.824;-0.196;2022-10-10T03:30:57;8.55;;;3.60;;
68144;SDS011;55400;51.824;-0.196;2022-10-10T03:33:22;10.15;;;3.35;;
68144;SDS011;55400;51.824;-0.196;2022-10-10T03:35:48;7.07;;;3.38;;
68144;SDS011;55400;51.824;-0.196;2022-10-10T03:38:13;9.45;;;3.50;;
68144;SDS011;55400;51.824;-0.196;2022-10-10T03:40:40;5.75;;;3.15;;
68144;SDS011;55400;51.824;-0.196;2022-10-10T03:43:07;10.73;;;3.45;;
68144;SDS011;55400;51.824;-0.196;2022-10-10T03:45:34;8.38;;;3.92;;
68144;SDS011;55400;51.824;-0.196;2022-10-10T03:47:59;8.35;;;3.55;;
68144;SDS011;55400;51.824;-0.196;2022-10-10T03:50:25;5.30;;;3.00;;
68144;SDS011;55400;51.824;-0.196;2022-10-10T03:52:50;10.13;;;3.45;;
68144;SDS011;55400;51.824;-0.196;2022-10-10T03:55:16;8.50;;;3.47;;
68144;SDS011;55400;51.824;-0.196;2022-10-10T03:57:42;9.90;;;3.40;;
68144;SDS011;55400;51.824;-0.196;2022-10-10T04:00:07;6.78;;;2.97;;
68144;SDS011;55400;51.824;-0.196;2022-10-10T04:02:33;6.35;;;3.20;;
68144;SDS011;55400;51.824;-0.196;2022-10-10T04:04:59;9.40;;;3.63;;
68144;SDS011;55400;51.824;-0.196;2022-10-10T04:07:24;6.00;;;3.13;;
68144;SDS011;55400;51.824;-0.196;2022-10-10T04:09:50;8.88;;;3.22;;
68144;SDS011;55400;51.824;-0.196;2022-10-10T04:12:15;11.15;;;3.28;;
68144;SDS011;55400;51.824;-0.196;2022-10-10T04:14:41;8.27;;;3.60;;
68144;SDS011;55400;51.824;-0.196;2022-10-10T04:17:06;13.45;;;3.38;;
68144;SDS011;55400;51.824;-0.196;2022-10-10T04:19:32;6.57;;;2.97;;
68144;SDS011;55400;51.824;-0.196;2022-10-10T04:21:58;9.32;;;3.53;;
68144;SDS011;55400;51.824;-0.196;2022-10-10T04:24:23;6.05;;;3.10;;
68144;SDS011;55400;51.824;-0.196;2022-10-10T04:26:49;8.63;;;3.13;;
68144;SDS011;55400;51.824;-0.196;2022-10-10T04:29:14;11.75;;;3.60;;
68144;SDS011;55400;51.824;-0.196;2022-10-10T04:31:39;6.82;;;3.45;;
68144;SDS011;55400;51.824;-0.196;2022-10-10T04:34:05;5.70;;;3.10;;
68144;SDS011;55400;51.824;-0.196;2022-10-10T04:36:30;9.95;;;3.25;;
68144;SDS011;55400;51.824;-0.196;2022-10-10T04:38:56;8.75;;;3.97;;
68144;SDS011;55400;51.824;-0.196;2022-10-10T04:41:21;9.85;;;3.15;;
68144;SDS011;55400;51.824;-0.196;2022-10-10T04:43:47;10.80;;;3.80;;
68144;SDS011;55400;51.824;-0.196;2022-10-10T04:46:12;11.80;;;3.78;;
68144;SDS011;55400;51.824;-0.196;2022-10-10T04:48:38;8.88;;;3.45;;
68144;SDS011;55400;51.824;-0.196;2022-10-10T04:51:03;6.20;;;3.28;;
68144;SDS011;55400;51.824;-0.196;2022-10-10T04:53:28;9.15;;;3.97;;
68144;SDS011;55400;51.824;-0.196;2022-10-10T04:55:54;7.15;;;3.22;;
68144;SDS011;55400;51.824;-0.196;2022-10-10T04:58:19;6.82;;;3.40;;
68144;SDS011;55400;51.824;-0.196;2022-10-10T05:00:49;8.38;;;3.20;;
68144;SDS011;55400;51.824;-0.196;2022-10-10T05:03:15;8.40;;;3.60;;
68144;SDS011;55400;51.824;-0.196;2022-10-10T05:05:42;9.25;;;3.70;;
68144;SDS011;55400;51.824;-0.196;2022-10-10T05:08:07;5.85;;;3.20;;
68144;SDS011;55400;51.824;-0.196;2022-10-10T05:10:37;5.57;;;2.97;;
68144;SDS011;55400;51.824;-0.196;2022-10-10T05:13:03;7.20;;;3.70;;
68144;SDS011;55400;51.824;-0.196;2022-10-10T05:15:35;7.60;;;3.28;;
68144;SDS011;55400;51.824;-0.196;2022-10-10T05:18:02;9.95;;;3.75;;
68144;SDS011;55400;51.824;-0.196;2022-10-10T05:20:28;6.10;;;3.47;;
68144;SDS011;55400;51.824;-0.196;2022-10-10T05:22:54;6.80;;;3.60;;
68144;SDS011;55400;51.824;-0.196;2022-10-10T05:25:19;5.38;;;3.42;;
68144;SDS011;55400;51.824;-0.196;2022-10-10T05:27:45;6.75;;;3.63;;
68144;SDS011;55400;51.824;-0.196;2022-10-10T05:30:17;8.95;;;3.67;;
68144;SDS011;55400;51.824;-0.196;2022-10-10T05:32:42;6.18;;;3.22;;
68144;SDS011;55400;51.824;-0.196;2022-10-10T05:35:08;8.95;;;3.20;;
68144;SDS011;55400;51.824;-0.196;2022-10-10T05:37:34;9.40;;;3.42;;
68144;SDS011;55400;51.824;-0.196;2022-10-10T05:40:00;9.65;;;3.65;;
68144;SDS011;55400;51.824;-0.196;2022-10-10T05:42:26;8.52;;;3.70;;
68144;SDS011;55400;51.824;-0.196;2022-10-10T05:44:51;9.18;;;3.50;;
68144;SDS011;55400;51.824;-0.196;2022-10-10T05:47:17;16.27;;;3.92;;
68144;SDS011;55400;51.824;-0.196;2022-10-10T05:49:42;7.15;;;3.20;;
68144;SDS011;55400;51.824;-0.196;2022-10-10T05:52:08;3.80;;;2.30;;
68144;SDS011;55400;51.824;-0.196;2022-10-10T05:54:33;3.25;;;2.13;;
68144;SDS011;55400;51.824;-0.196;2022-10-10T05:56:59;4.15;;;2.17;;
68144;SDS011;55400;51.824;-0.196;2022-10-10T05:59:26;1.92;;;1.73;;
68144;SDS011;55400;51.824;-0.196;2022-10-10T06:01:53;4.50;;;1.80;;
68144;SDS011;55400;51.824;-0.196;2022-10-10T06:04:19;5.82;;;2.10;;
68144;SDS011;55400;51.824;-0.196;2022-10-10T06:06:44;6.03;;;1.90;;
68144;SDS011;55400;51.824;-0.196;2022-10-10T06:09:10;4.10;;;1.92;;
68144;SDS011;55400;51.824;-0.196;2022-10-10T06:11:35;8.82;;;2.05;;
68144;SDS011;55400;51.824;-0.196;2022-10-10T06:14:01;5.13;;;2.08;;
68144;SDS011;55400;51.824;-0.196;2022-10-10T06:16:27;7.53;;;2.60;;
68144;SDS011;55400;51.824;-0.196;2022-10-10T06:18:53;5.57;;;1.90;;
68144;SDS011;55400;51.824;-0.196;2022-10-10T06:21:21;6.17;;;2.57;;
68144;SDS011;55400;51.824;-0.196;2022-10-10T06:23:47;5.45;;;1.98;;
68144;SDS011;55400;51.824;-0.196;2022-10-10T06:26:13;7.65;;;2.60;;
68144;SDS011;55400;51.824;-0.196;2022-10-10T06:28:38;6.68;;;2.17;;
68144;SDS011;55400;51.824;-0.196;2022-10-10T06:31:05;5.78;;;2.15;;
68144;SDS011;55400;51.824;-0.196;2022-10-10T06:33:32;4.85;;;2.30;;
68144;SDS011;55400;51.824;-0.196;2022-10-10T06:36:01;4.70;;;1.80;;
68144;SDS011;55400;51.824;-0.196;2022-10-10T06:38:29;8.07;;;2.42;;
68144;SDS011;55400;51.824;-0.196;2022-10-10T06:40:54;7.25;;;1.80;;
68144;SDS011;55400;51.824;-0.196;2022-10-10T06:43:20;7.97;;;1.98;;
68144;SDS011;55400;51.824;-0.196;2022-10-10T06:45:48;8.77;;;2.40;;
68144;SDS011;55400;51.824;-0.196;2022-10-10T06:48:14;9.20;;;2.30;;
68144;SDS011;55400;51.824;-0.196;2022-10-10T06:50:40;11.48;;;2.47;;
68144;SDS011;55400;51.824;-0.196;2022-10-10T06:53:06;6.05;;;1.60;;
68144;SDS011;55400;51.824;-0.196;2022-10-10T06:55:31;5.88;;;1.73;;
68144;SDS011;55400;51.824;-0.196;2022-10-10T06:57:56;8.43;;;2.10;;
68144;SDS011;55400;51.824;-0.196;2022-10-10T07:00:22;8.98;;;2.17;;
68144;SDS011;55400;51.824;-0.196;2022-10-10T07:02:48;5.97;;;1.67;;
68144;SDS011;55400;51.824;-0.196;2022-10-10T07:05:14;5.85;;;1.92;;
68144;SDS011;55400;51.824;-0.196;2022-10-10T07:07:41;6.82;;;2.10;;
68144;SDS011;55400;51.824;-0.196;2022-10-10T07:10:08;4.82;;;1.42;;
68144;SDS011;55400;51.824;-0.196;2022-10-10T07:15:03;12.82;;;1.63;;
68144;SDS011;55400;51.824;-0.196;2022-10-10T07:17:30;9.35;;;1.75;;
68144;SDS011;55400;51.824;-0.196;2022-10-10T07:19:55;5.97;;;1.55;;
68144;SDS011;55400;51.824;-0.196;2022-10-10T07:22:21;7.60;;;1.80;;
68144;SDS011;55400;51.824;-0.196;2022-10-10T07:24:46;6.00;;;1.50;;
68144;SDS011;55400;51.824;-0.196;2022-10-10T07:27:12;4.97;;;1.60;;
68144;SDS011;55400;51.824;-0.196;2022-10-10T07:29:38;3.92;;;1.35;;
68144;SDS011;55400;51.824;-0.196;2022-10-10T07:32:03;7.53;;;1.60;;
68144;SDS011;55400;51.824;-0.196;2022-10-10T07:34:29;10.00;;;2.38;;
68144;SDS011;55400;51.824;-0.196;2022-10-10T07:36:54;4.95;;;1.55;;
68144;SDS011;55400;51.824;-0.196;2022-10-10T07:39:22;8.13;;;2.00;;
68144;SDS011;55400;51.824;-0.196;2022-10-10T07:41:49;4.03;;;1.77;;
68144;SDS011;55400;51.824;-0.196;2022-10-10T07:44:16;6.05;;;2.03;;
68144;SDS011;55400;51.824;-0.196;2022-10-10T07:46:41;15.90;;;1.73;;
68144;SDS011;55400;51.824;-0.196;2022-10-10T07:49:07;6.05;;;1.90;;
68144;SDS011;55400;51.824;-0.196;2022-10-10T07:51:32;3.92;;;1.60;;
68144;SDS011;55400;51.824;-0.196;2022-10-10T07:53:58;6.60;;;2.05;;
68144;SDS011;55400;51.824;-0.196;2022-10-10T07:56:23;9.13;;;2.35;;
68144;SDS011;55400;51.824;-0.196;2022-10-10T07:58:49;11.18;;;2.20;;
68144;SDS011;55400;51.824;-0.196;2022-10-10T08:01:15;6.18;;;1.95;;
68144;SDS011;55400;51.824;-0.196;2022-10-10T08:03:41;6.13;;;1.95;;
68144;SDS011;55400;51.824;-0.196;2022-10-10T08:06:07;11.73;;;2.38;;
68144;SDS011;55400;51.824;-0.196;2022-10-10T08:08:35;12.15;;;2.30;;
68144;SDS011;55400;51.824;-0.196;2022-10-10T08:11:05;9.75;;;1.70;;
68144;SDS011;55400;51.824;-0.196;2022-10-10T08:13:31;13.98;;;2.78;;
68144;SDS011;55400;51.824;-0.196;2022-10-10T08:15:58;8.25;;;1.75;;
68144;SDS011;55400;51.824;-0.196;2022-10-10T08:18:23;10.48;;;1.95;;
68144;SDS011;55400;51.824;-0.196;2022-10-10T08:21:03;10.68;;;2.10;;
68144;SDS011;55400;51.824;-0.196;2022-10-10T08:23:30;9.52;;;2.28;;
68144;SDS011;55400;51.824;-0.196;2022-10-10T08:25:57;10.95;;;2.30;;
68144;SDS011;55400;51.824;-0.196;2022-10-10T08:28:24;5.03;;;1.85;;
68144;SDS011;55400;51.824;-0.196;2022-10-10T08:30:49;12.27;;;2.30;;
68144;SDS011;55400;51.824;-0.196;2022-10-10T08:33:15;7.35;;;2.03;;
68144;SDS011;55400;51.824;-0.196;2022-10-10T08:35:41;7.88;;;2.30;;
68144;SDS011;55400;51.824;-0.196;2022-10-10T08:38:06;10.85;;;2.30;;
68144;SDS011;55400;51.824;-0.196;2022-10-10T08:40:33;10.88;;;2.25;;
68144;SDS011;55400;51.824;-0.196;2022-10-10T08:43:01;11.48;;;2.47;;
68144;SDS011;55400;51.824;-0.196;2022-10-10T08:45:31;12.90;;;2.80;;
68144;SDS011;55400;51.824;-0.196;2022-10-10T08:48:09;10.50;;;2.97;;
68144;SDS011;55400;51.824;-0.196;2022-10-10T08:50:42;14.98;;;3.10;;
68144;SDS011;55400;51.824;-0.196;2022-10-10T08:53:20;12.18;;;2.55;;
68144;SDS011;55400;51.824;-0.196;2022-10-10T08:55:48;16.27;;;2.95;;
68144;SDS011;55400;51.824;-0.196;2022-10-10T09:00:50;14.13;;;2.85;;
68144;SDS011;55400;51.824;-0.196;2022-10-10T09:03:26;16.10;;;2.95;;
68144;SDS011;55400;51.824;-0.196;2022-10-10T09:06:06;9.95;;;2.65;;
68144;SDS011;55400;51.824;-0.196;2022-10-10T09:17:12;28.80;;;3.58;;
68144;SDS011;55400;51.824;-0.196;2022-10-10T09:22:35;12.27;;;2.15;;
68144;SDS011;55400;51.824;-0.196;2022-10-10T09:25:17;17.38;;;2.72;;
68144;SDS011;55400;51.824;-0.196;2022-10-10T09:30:30;14.55;;;2.78;;
68144;SDS011;55400;51.824;-0.196;2022-10-10T09:33:09;14.27;;;3.15;;
68144;SDS011;55400;51.824;-0.196;2022-10-10T09:35:49;10.70;;;3.13;;
68144;SDS011;55400;51.824;-0.196;2022-10-10T09:41:04;14.40;;;2.47;;
68144;SDS011;55400;51.824;-0.196;2022-10-10T09:43:37;13.93;;;4.05;;
68144;SDS011;55400;51.824;-0.196;2022-10-10T09:46:03;28.23;;;10.48;;
68144;SDS011;55400;51.824;-0.196;2022-10-10T09:48:31;31.85;;;11.05;;
68144;SDS011;55400;51.824;-0.196;2022-10-10T09:51:13;16.30;;;4.07;;
68144;SDS011;55400;51.824;-0.196;2022-10-10T09:53:41;18.42;;;3.65;;
68144;SDS011;55400;51.824;-0.196;2022-10-10T09:56:13;13.18;;;2.88;;
68144;SDS011;55400;51.824;-0.196;2022-10-10T09:58:42;8.63;;;2.25;;
68144;SDS011;55400;51.824;-0.196;2022-10-10T10:01:13;10.40;;;2.30;;
68144;SDS011;55400;51.824;-0.196;2022-10-10T10:03:42;13.75;;;3.17;;
68144;SDS011;55400;51.824;-0.196;2022-10-10T10:06:12;11.25;;;2.72;;
68144;SDS011;55400;51.824;-0.196;2022-10-10T10:08:39;10.02;;;3.08;;
68144;SDS011;55400;51.824;-0.196;2022-10-10T10:11:17;17.55;;;2.90;;
68144;SDS011;55400;51.824;-0.196;2022-10-10T10:13:52;9.20;;;2.20;;
68144;SDS011;55400;51.824;-0.196;2022-10-10T10:16:19;11.50;;;2.50;;
68144;SDS011;55400;51.824;-0.196;2022-10-10T10:18:55;9.05;;;2.40;;
68144;SDS011;55400;51.824;-0.196;2022-10-10T10:21:22;12.88;;;2.50;;
68144;SDS011;55400;51.824;-0.196;2022-10-10T10:23:59;10.13;;;2.45;;
68144;SDS011;55400;51.824;-0.196;2022-10-10T10:31:56;14.95;;;2.25;;
68144;SDS011;55400;51.824;-0.196;2022-10-10T10:42:44;11.80;;;2.58;;
68144;SDS011;55400;51.824;-0.196;2022-10-10T10:50:47;12.63;;;2.88;;
68144;SDS011;55400;51.824;-0.196;2022-10-10T10:53:22;12.45;;;2.83;;
68144;SDS011;55400;51.824;-0.196;2022-10-10T10:56:27;15.90;;;3.17;;
68144;SDS011;55400;51.824;-0.196;2022-10-10T11:07:18;7.22;;;2.10;;
68144;SDS011;55400;51.824;-0.196;2022-10-10T11:12:18;9.32;;;2.90;;
68144;SDS011;55400;51.824;-0.196;2022-10-10T11:14:55;12.13;;;2.47;;
68144;SDS011;55400;51.824;-0.196;2022-10-10T11:17:27;9.50;;;3.33;;
68144;SDS011;55400;51.824;-0.196;2022-10-10T11:20:02;14.95;;;2.60;;
68144;SDS011;55400;51.824;-0.196;2022-10-10T11:22:38;10.15;;;2.75;;
68144;SDS011;55400;51.824;-0.196;2022-10-10T11:25:13;7.50;;;2.10;;
68144;SDS011;55400;51.824;-0.196;2022-10-10T11:27:47;12.02;;;2.58;;
68144;SDS011;55400;51.824;-0.196;2022-10-10T11:30:19;8.60;;;1.88;;
68144;SDS011;55400;51.824;-0.196;2022-10-10T11:32:49;11.32;;;2.72;;
68144;SDS011;55400;51.824;-0.196;2022-10-10T11:35:29;7.97;;;2.25;;
68144;SDS011;55400;51.824;-0.196;2022-10-10T11:38:00;12.57;;;2.40;;
68144;SDS011;55400;51.824;-0.196;2022-10-10T11:40:43;12.07;;;3.00;;
68144;SDS011;55400;51.824;-0.196;2022-10-10T11:43:17;6.95;;;2.00;;
68144;SDS011;55400;51.824;-0.196;2022-10-10T11:45:50;18.65;;;2.75;;
68144;SDS011;55400;51.824;-0.196;2022-10-10T11:48:28;14.85;;;2.63;;
68144;SDS011;55400;51.824;-0.196;2022-10-10T11:51:10;12.07;;;2.72;;
68144;SDS011;55400;51.824;-0.196;2022-10-10T11:53:43;14.52;;;2.50;;
68144;SDS011;55400;51.824;-0.196;2022-10-10T11:59:01;8.40;;;2.63;;
68144;SDS011;55400;51.824;-0.196;2022-10-10T12:01:45;14.27;;;2.53;;
68144;SDS011;55400;51.824;-0.196;2022-10-10T12:04:14;16.27;;;2.85;;
68144;SDS011;55400;51.824;-0.196;2022-10-10T12:06:42;8.48;;;2.40;;
68144;SDS011;55400;51.824;-0.196;2022-10-10T12:09:18;15.80;;;3.33;;
68144;SDS011;55400;51.824;-0.196;2022-10-10T12:11:57;8.27;;;2.10;;
68144;SDS011;55400;51.824;-0.196;2022-10-10T12:14:28;10.10;;;2.70;;
68144;SDS011;55400;51.824;-0.196;2022-10-10T12:16:55;13.85;;;2.90;;
68144;SDS011;55400;51.824;-0.196;2022-10-10T12:19:23;18.05;;;2.72;;
68144;SDS011;55400;51.824;-0.196;2022-10-10T12:24:31;14.18;;;3.28;;
68144;SDS011;55400;51.824;-0.196;2022-10-10T12:35:47;12.18;;;2.05;;
68144;SDS011;55400;51.824;-0.196;2022-10-10T12:40:30;17.25;;;2.55;;
68144;SDS011;55400;51.824;-0.196;2022-10-10T12:48:32;9.67;;;2.17;;
68144;SDS011;55400;51.824;-0.196;2022-10-10T12:50:58;13.13;;;2.78;;
68144;SDS011;55400;51.824;-0.196;2022-10-10T12:53:26;11.63;;;2.90;;
68144;SDS011;55400;51.824;-0.196;2022-10-10T12:55:54;17.10;;;3.10;;
68144;SDS011;55400;51.824;-0.196;2022-10-10T12:58:30;12.23;;;2.55;;
68144;SDS011;55400;51.824;-0.196;2022-10-10T13:01:07;11.80;;;3.38;;
68144;SDS011;55400;51.824;-0.196;2022-10-10T13:06:39;10.48;;;2.70;;
68144;SDS011;55400;51.824;-0.196;2022-10-10T13:09:30;8.73;;;1.98;;
68144;SDS011;55400;51.824;-0.196;2022-10-10T13:12:34;9.77;;;2.30;;
68144;SDS011;55400;51.824;-0.196;2022-10-10T13:14:59;10.27;;;2.40;;
68144;SDS011;55400;51.824;-0.196;2022-10-10T13:17:25;10.70;;;2.30;;
68144;SDS011;55400;51.824;-0.196;2022-10-10T13:19:52;6.35;;;2.45;;
68144;SDS011;55400;51.824;-0.196;2022-10-10T13:22:19;11.35;;;2.20;;
68144;SDS011;55400;51.824;-0.196;2022-10-10T13:24:45;7.93;;;2.42;;
68144;SDS011;55400;51.824;-0.196;2022-10-10T13:27:22;8.07;;;2.38;;
68144;SDS011;55400;51.824;-0.196;2022-10-10T13:29:50;8.20;;;2.10;;
68144;SDS011;55400;51.824;-0.196;2022-10-10T13:32:19;9.80;;;2.30;;
68144;SDS011;55400;51.824;-0.196;2022-10-10T13:34:49;9.48;;;2.38;;
68144;SDS011;55400;51.824;-0.196;2022-10-10T13:37:25;16.17;;;2.40;;
68144;SDS011;55400;51.824;-0.196;2022-10-10T13:39:52;7.07;;;2.13;;
68144;SDS011;55400;51.824;-0.196;2022-10-10T13:42:25;10.45;;;2.58;;
68144;SDS011;55400;51.824;-0.196;2022-10-10T13:44:51;11.57;;;2.70;;
68144;SDS011;55400;51.824;-0.196;2022-10-10T13:47:41;12.98;;;2.63;;
68144;SDS011;55400;51.824;-0.196;2022-10-10T13:56:09;9.32;;;2.78;;
68144;SDS011;55400;51.824;-0.196;2022-10-10T13:58:49;13.90;;;3.15;;
68144;SDS011;55400;51.824;-0.196;2022-10-10T14:06:58;10.65;;;2.63;;
68144;SDS011;55400;51.824;-0.196;2022-10-10T14:09:29;9.60;;;2.05;;
68144;SDS011;55400;51.824;-0.196;2022-10-10T14:12:02;13.18;;;2.40;;
68144;SDS011;55400;51.824;-0.196;2022-10-10T14:16:59;8.80;;;2.28;;
68144;SDS011;55400;51.824;-0.196;2022-10-10T14:25:41;10.48;;;4.07;;
68144;SDS011;55400;51.824;-0.196;2022-10-10T14:28:24;13.18;;;2.42;;
68144;SDS011;55400;51.824;-0.196;2022-10-10T14:30:55;9.55;;;3.33;;
68144;SDS011;55400;51.824;-0.196;2022-10-10T14:33:21;9.68;;;2.50;;
68144;SDS011;55400;51.824;-0.196;2022-10-10T14:35:47;10.40;;;3.15;;
68144;SDS011;55400;51.824;-0.196;2022-10-10T14:38:27;7.50;;;2.90;;
68144;SDS011;55400;51.824;-0.196;2022-10-10T14:40:53;15.25;;;2.72;;
68144;SDS011;55400;51.824;-0.196;2022-10-10T14:43:19;10.85;;;2.47;;
68144;SDS011;55400;51.824;-0.196;2022-10-10T14:45:47;12.10;;;2.42;;
68144;SDS011;55400;51.824;-0.196;2022-10-10T14:48:14;5.97;;;1.53;;
68144;SDS011;55400;51.824;-0.196;2022-10-10T14:50:40;6.43;;;2.15;;
68144;SDS011;55400;51.824;-0.196;2022-10-10T14:53:08;7.93;;;2.20;;
68144;SDS011;55400;51.824;-0.196;2022-10-10T14:55:35;11.68;;;2.95;;
68144;SDS011;55400;51.824;-0.196;2022-10-10T14:58:01;8.68;;;2.38;;
68144;SDS011;55400;51.824;-0.196;2022-10-10T15:00:30;9.80;;;2.35;;
68144;SDS011;55400;51.824;-0.196;2022-10-10T15:02:58;9.02;;;2.42;;
68144;SDS011;55400;51.824;-0.196;2022-10-10T15:05:23;6.05;;;2.05;;
68144;SDS011;55400;51.824;-0.196;2022-10-10T15:07:49;9.25;;;2.28;;
68144;SDS011;55400;51.824;-0.196;2022-10-10T15:10:17;7.55;;;2.40;;
68144;SDS011;55400;51.824;-0.196;2022-10-10T15:12:43;7.65;;;2.20;;
68144;SDS011;55400;51.824;-0.196;2022-10-10T15:15:09;9.18;;;2.30;;
68144;SDS011;55400;51.824;-0.196;2022-10-10T15:17:36;8.45;;;2.50;;
68144;SDS011;55400;51.824;-0.196;2022-10-10T15:20:03;6.25;;;2.25;;
68144;SDS011;55400;51.824;-0.196;2022-10-10T15:22:30;7.25;;;2.08;;
68144;SDS011;55400;51.824;-0.196;2022-10-10T15:24:56;12.50;;;2.67;;
68144;SDS011;55400;51.824;-0.196;2022-10-10T15:27:22;9.77;;;2.50;;
68144;SDS011;55400;51.824;-0.196;2022-10-10T15:29:47;13.70;;;2.60;;
68144;SDS011;55400;51.824;-0.196;2022-10-10T15:32:13;8.80;;;2.13;;
68144;SDS011;55400;51.824;-0.196;2022-10-10T15:34:38;12.10;;;2.63;;
68144;SDS011;55400;51.824;-0.196;2022-10-10T15:37:04;12.13;;;2.55;;
68144;SDS011;55400;51.824;-0.196;2022-10-10T15:39:34;6.65;;;2.10;;
68144;SDS011;55400;51.824;-0.196;2022-10-10T15:42:01;5.13;;;1.65;;
68144;SDS011;55400;51.824;-0.196;2022-10-10T15:44:26;9.98;;;2.55;;
68144;SDS011;55400;51.824;-0.196;2022-10-10T15:46:52;12.32;;;2.58;;
68144;SDS011;55400;51.824;-0.196;2022-10-10T15:49:17;11.68;;;2.67;;
68144;SDS011;55400;51.824;-0.196;2022-10-10T15:51:44;8.02;;;2.17;;
68144;SDS011;55400;51.824;-0.196;2022-10-10T15:54:11;9.10;;;2.55;;
68144;SDS011;55400;51.824;-0.196;2022-10-10T15:56:37;6.32;;;1.73;;
68144;SDS011;55400;51.824;-0.196;2022-10-10T15:59:03;7.97;;;2.28;;
68144;SDS011;55400;51.824;-0.196;2022-10-10T16:01:29;10.23;;;2.47;;
68144;SDS011;55400;51.824;-0.196;2022-10-10T16:03:55;10.40;;;2.40;;
68144;SDS011;55400;51.824;-0.196;2022-10-10T16:06:22;12.50;;;2.58;;
68144;SDS011;55400;51.824;-0.196;2022-10-10T16:08:52;6.85;;;2.40;;
68144;SDS011;55400;51.824;-0.196;2022-10-10T16:11:20;9.27;;;2.47;;
68144;SDS011;55400;51.824;-0.196;2022-10-10T16:13:51;7.60;;;2.40;;
68144;SDS011;55400;51.824;-0.196;2022-10-10T16:16:19;8.80;;;2.20;;
68144;SDS011;55400;51.824;-0.196;2022-10-10T16:18:45;9.30;;;2.67;;
68144;SDS011;55400;51.824;-0.196;2022-10-10T16:21:16;10.43;;;1.88;;
68144;SDS011;55400;51.824;-0.196;2022-10-10T16:23:43;9.98;;;2.17;;
68144;SDS011;55400;51.824;-0.196;2022-10-10T16:26:11;9.80;;;1.88;;
68144;SDS011;55400;51.824;-0.196;2022-10-10T16:28:39;12.82;;;2.00;;
68144;SDS011;55400;51.824;-0.196;2022-10-10T16:31:06;9.35;;;2.08;;
68144;SDS011;55400;51.824;-0.196;2022-10-10T16:33:33;7.88;;;2.30;;
68144;SDS011;55400;51.824;-0.196;2022-10-10T16:36:00;13.50;;;2.40;;
68144;SDS011;55400;51.824;-0.196;2022-10-10T16:38:31;7.22;;;1.92;;